Time;durP1;ratioP1;P1;durP2;ratioP2;P2;SDS_P1;SDS_P2;PMS_P1;PMS_P2;Temp;Humidity;BMP_temperature;BMP_pressure;BME280_temperature;BME280_humidity;BME280_pressure;Samples;Min_cycle;Max_cycle;Signal;HPM_P1;HPM_P2
2022/10/07 00:01:47;;;;;;;6.35;4.05;;;12.90;45.00;;;;;;5012316;28;20191;-43
2022/10/07 00:04:13;;;;;;;8.55;4.80;;;12.90;44.90;;;;;;5012223;28;20214;-43
2022/10/07 00:06:38;;;;;;;7.57;3.95;;;12.90;44.70;;;;;;5011532;28;20199;-44
2022/10/07 00:09:04;;;;;;;6.33;3.87;;;12.80;44.60;;;;;;5012296;28;20174;-44
2022/10/07 00:11:31;;;;;;;3.90;3.43;;;12.80;44.70;;;;;;5012309;28;20429;-43
2022/10/07 00:14:02;;;;;;;4.30;3.53;;;12.80;44.80;;;;;;5012112;28;20185;-44
2022/10/07 00:16:33;;;;;;;12.52;4.90;;;12.80;44.80;;;;;;5011603;28;20191;-44
2022/10/07 00:19:03;;;;;;;4.38;3.97;;;12.80;44.70;;;;;;5012088;28;20170;-44
2022/10/07 00:21:31;;;;;;;12.40;3.78;;;12.70;44.80;;;;;;5012082;28;20185;-44
2022/10/07 00:23:57;;;;;;;4.93;3.90;;;12.70;44.80;;;;;;5012015;28;20179;-43
2022/10/07 00:26:26;;;;;;;4.60;4.10;;;12.70;44.90;;;;;;5011549;28;20205;-43
2022/10/07 00:28:51;;;;;;;7.28;3.75;;;12.70;44.80;;;;;;5012095;28;20258;-44
2022/10/07 00:31:20;;;;;;;5.30;4.47;;;12.70;44.60;;;;;;5011937;28;20270;-43
2022/10/07 00:33:46;;;;;;;10.13;4.25;;;12.60;44.80;;;;;;5015638;28;20182;-43
2022/10/07 00:36:19;;;;;;;4.28;3.63;;;12.60;45.00;;;;;;5015149;28;20241;-43
2022/10/07 00:38:55;;;;;;;5.75;4.32;;;12.60;45.60;;;;;;5015748;28;20266;-43
2022/10/07 00:41:32;;;;;;;7.07;4.10;;;12.60;44.90;;;;;;5016105;28;20209;-44
2022/10/07 00:43:59;;;;;;;8.02;4.50;;;12.50;45.00;;;;;;5015824;28;20508;-44
2022/10/07 00:46:30;;;;;;;9.13;4.18;;;12.50;44.90;;;;;;5015018;28;20582;-43
2022/10/07 00:49:11;;;;;;;6.70;4.10;;;12.40;45.00;;;;;;5015583;28;20221;-44
2022/10/07 00:51:39;;;;;;;4.65;3.33;;;12.40;44.80;;;;;;5015679;28;20192;-44
2022/10/07 00:54:10;;;;;;;5.53;3.90;;;12.40;44.70;;;;;;5015563;28;20193;-43
2022/10/07 00:56:37;;;;;;;4.80;4.10;;;12.40;44.70;;;;;;5014944;28;20590;-43
2022/10/07 00:59:04;;;;;;;6.30;4.30;;;12.30;44.90;;;;;;5015512;28;20193;-44
2022/10/07 01:01:30;;;;;;;5.28;4.40;;;12.30;44.80;;;;;;5015383;28;20258;-44
2022/10/07 01:03:56;;;;;;;7.67;4.07;;;12.30;45.00;;;;;;5015589;28;20228;-43
2022/10/07 01:06:22;;;;;;;5.27;3.30;;;12.30;44.90;;;;;;4997622;28;20214;-44
2022/10/07 01:08:51;;;;;;;6.80;3.60;;;12.30;45.00;;;;;;5015190;28;20261;-44
2022/10/07 01:11:45;;;;;;;7.78;4.85;;;12.20;45.10;;;;;;5015558;28;20190;-44
2022/10/07 01:14:56;;;;;;;6.20;4.07;;;12.20;45.00;;;;;;5015155;28;20707;-43
2022/10/07 01:17:34;;;;;;;6.07;3.80;;;12.20;44.90;;;;;;5014626;28;20159;-45
2022/10/07 01:20:32;;;;;;;6.10;3.75;;;12.10;45.00;;;;;;5015045;28;20630;-44
2022/10/07 01:23:25;;;;;;;5.57;3.78;;;12.10;44.90;;;;;;5015018;28;20550;-43
2022/10/07 01:26:22;;;;;;;5.20;3.55;;;12.10;45.00;;;;;;5014665;28;20198;-43
2022/10/07 01:28:50;;;;;;;5.47;3.53;;;12.10;45.00;;;;;;5014807;28;20206;-43
2022/10/07 01:31:23;;;;;;;8.57;4.10;;;12.00;44.90;;;;;;5015073;28;20262;-43
2022/10/07 01:33:51;;;;;;;8.77;5.13;;;12.00;44.80;;;;;;5015118;28;20254;-43
2022/10/07 01:36:21;;;;;;;7.43;4.38;;;12.00;44.70;;;;;;5014014;28;20692;-43
2022/10/07 01:38:52;;;;;;;5.40;3.40;;;11.90;44.70;;;;;;5015025;28;20185;-43
2022/10/07 01:41:23;;;;;;;7.00;4.25;;;11.90;44.90;;;;;;5014693;28;20175;-44
2022/10/07 01:43:52;;;;;;;8.05;4.70;;;11.90;44.90;;;;;;5014643;28;20210;-43
2022/10/07 01:46:24;;;;;;;6.45;4.13;;;12.00;44.70;;;;;;5013886;28;20289;-43
2022/10/07 01:48:51;;;;;;;3.50;2.92;;;11.90;44.70;;;;;;5014651;28;20236;-43
2022/10/07 01:51:21;;;;;;;5.28;4.13;;;11.90;44.60;;;;;;5014580;28;20542;-44
2022/10/07 01:54:05;;;;;;;10.93;5.15;;;11.90;44.70;;;;;;5014454;28;20170;-43
2022/10/07 01:56:59;;;;;;;6.35;4.60;;;11.80;44.70;;;;;;5013740;28;20684;-43
2022/10/07 01:59:34;;;;;;;10.52;4.28;;;11.80;44.80;;;;;;5014725;28;20515;-44
2022/10/07 02:02:08;;;;;;;3.90;3.40;;;11.70;44.70;;;;;;5014204;28;20244;-43
2022/10/07 02:04:59;;;;;;;14.20;5.40;;;11.70;44.80;;;;;;5014326;28;20642;-43
2022/10/07 02:07:40;;;;;;;6.32;4.75;;;11.70;44.70;;;;;;5013698;28;20206;-43
2022/10/07 02:10:28;;;;;;;8.55;4.40;;;11.70;45.10;;;;;;5014234;28;20178;-44
2022/10/07 02:13:07;;;;;;;5.47;4.28;;;11.70;45.10;;;;;;5014030;28;20216;-44
2022/10/07 02:15:59;;;;;;;8.20;4.55;;;11.70;45.10;;;;;;5013425;28;20575;-44
2022/10/07 02:18:27;;;;;;;12.52;4.35;;;11.70;45.20;;;;;;5014306;28;20178;-43
2022/10/07 02:20:54;;;;;;;13.18;3.85;;;11.60;45.30;;;;;;5013911;28;20268;-43
2022/10/07 02:23:22;;;;;;;7.60;3.55;;;11.60;45.10;;;;;;5014124;28;20194;-43
2022/10/07 02:25:50;;;;;;;3.92;3.47;;;11.60;45.00;;;;;;5013471;28;20203;-43
2022/10/07 02:28:20;;;;;;;7.60;4.38;;;11.60;45.20;;;;;;5013709;28;20296;-43
2022/10/07 02:30:52;;;;;;;7.25;4.30;;;11.60;45.10;;;;;;5013852;28;20527;-43
2022/10/07 02:33:20;;;;;;;7.40;3.97;;;11.60;45.20;;;;;;5013572;28;20582;-44
2022/10/07 02:35:50;;;;;;;6.70;3.67;;;11.60;45.30;;;;;;5012936;28;20744;-43
2022/10/07 02:38:17;;;;;;;5.78;3.78;;;11.60;45.20;;;;;;5013660;28;20658;-44
2022/10/07 02:41:30;;;;;;;5.85;3.20;;;11.50;45.20;;;;;;5013749;28;20189;-43
2022/10/07 02:44:12;;;;;;;6.47;3.67;;;11.50;45.10;;;;;;5013586;28;20674;-43
2022/10/07 02:46:45;;;;;;;8.05;5.38;;;11.50;45.20;;;;;;5012870;28;20275;-43
2022/10/07 02:49:13;;;;;;;7.63;3.63;;;11.50;45.20;;;;;;5013525;28;20205;-44
2022/10/07 02:51:55;;;;;;;4.57;3.15;;;11.50;45.00;;;;;;5013498;28;20166;-43
2022/10/07 02:54:26;;;;;;;6.63;3.58;;;11.40;44.90;;;;;;5013569;28;20559;-44
2022/10/07 02:56:53;;;;;;;3.80;2.90;;;11.40;45.00;;;;;;5012369;28;20198;-43
2022/10/07 02:59:20;;;;;;;4.40;3.55;;;11.40;45.20;;;;;;5013179;28;20182;-44
2022/10/07 03:01:51;;;;;;;8.32;3.80;;;11.40;45.10;;;;;;5013289;28;20213;-43
2022/10/07 03:04:17;;;;;;;9.65;3.30;;;11.40;45.10;;;;;;5013205;28;20668;-44
2022/10/07 03:06:43;;;;;;;6.05;3.58;;;11.40;45.00;;;;;;5012342;28;20233;-44
2022/10/07 03:09:09;;;;;;;5.95;3.92;;;11.40;45.00;;;;;;5013265;28;20205;-44
2022/10/07 03:11:37;;;;;;;7.55;3.65;;;11.40;44.90;;;;;;5013362;28;20639;-44
2022/10/07 03:14:04;;;;;;;4.47;3.67;;;11.40;44.80;;;;;;5013314;28;20178;-44
2022/10/07 03:16:30;;;;;;;6.32;4.03;;;11.30;44.90;;;;;;5012733;28;20198;-43
2022/10/07 03:18:57;;;;;;;5.10;3.65;;;11.30;45.00;;;;;;5012946;28;20259;-43
2022/10/07 03:21:24;;;;;;;5.47;3.97;;;11.30;45.00;;;;;;5012996;28;20233;-44
2022/10/07 03:23:53;;;;;;;4.82;3.58;;;11.30;45.00;;;;;;5012860;28;20537;-43
2022/10/07 03:26:19;;;;;;;6.05;3.72;;;11.30;45.10;;;;;;5012262;28;20191;-43
2022/10/07 03:28:45;;;;;;;8.60;4.40;;;11.30;45.20;;;;;;5012746;28;20210;-44
2022/10/07 03:31:14;;;;;;;5.18;3.90;;;11.30;45.00;;;;;;5012718;28;20417;-43
2022/10/07 03:33:40;;;;;;;4.95;3.75;;;11.30;44.90;;;;;;5012793;28;20250;-43
2022/10/07 03:36:07;;;;;;;6.70;3.60;;;11.30;45.00;;;;;;5012029;28;20205;-43
2022/10/07 03:38:34;;;;;;;5.60;3.83;;;11.20;44.90;;;;;;5012565;28;20233;-43
2022/10/07 03:41:00;;;;;;;5.10;3.40;;;11.20;44.80;;;;;;5012561;28;20250;-44
2022/10/07 03:43:27;;;;;;;10.20;5.13;;;11.20;44.90;;;;;;5012717;28;20596;-43
2022/10/07 03:45:52;;;;;;;7.53;3.40;;;11.20;45.00;;;;;;5012127;28;20209;-43
2022/10/07 03:48:18;;;;;;;6.53;3.27;;;11.20;45.10;;;;;;5012511;28;20253;-44
2022/10/07 03:50:51;;;;;;;4.33;3.50;;;11.10;45.00;;;;;;5012575;28;20220;-44
2022/10/07 03:53:18;;;;;;;4.57;3.42;;;11.10;45.00;;;;;;5012469;28;20704;-44
2022/10/07 03:55:44;;;;;;;5.22;4.05;;;11.10;45.00;;;;;;5011819;28;20551;-43
2022/10/07 03:58:11;;;;;;;3.92;3.25;;;11.10;45.00;;;;;;5012385;28;20685;-44
2022/10/07 04:00:37;;;;;;;9.38;3.78;;;11.10;45.00;;;;;;5012370;28;20649;-43
2022/10/07 04:03:06;;;;;;;4.97;3.67;;;11.10;45.10;;;;;;5012539;28;20189;-43
2022/10/07 04:05:33;;;;;;;3.97;3.58;;;11.10;45.20;;;;;;5012288;28;20206;-44
2022/10/07 04:07:59;;;;;;;4.50;3.47;;;11.10;45.10;;;;;;5010953;28;20212;-43
2022/10/07 04:10:25;;;;;;;9.83;4.00;;;11.10;45.00;;;;;;5012528;28;20182;-43
2022/10/07 04:12:51;;;;;;;6.95;4.55;;;11.00;44.80;;;;;;5012219;28;20217;-44
2022/10/07 04:15:17;;;;;;;5.25;3.90;;;11.00;44.80;;;;;;5012054;28;20198;-42
2022/10/07 04:17:45;;;;;;;7.32;3.38;;;11.00;44.90;;;;;;5011602;28;20871;-43
2022/10/07 04:20:13;;;;;;;7.55;4.65;;;11.00;45.00;;;;;;5012117;28;20658;-43
2022/10/07 04:22:39;;;;;;;5.63;3.22;;;11.00;45.20;;;;;;5012393;28;20170;-43
2022/10/07 04:27:54;;;;;;;13.55;4.53;;;11.00;45.00;;;;;;5011636;28;20239;-43
2022/10/07 04:30:21;;;;;;;5.63;3.22;;;11.00;44.90;;;;;;5012328;28;20175;-43
2022/10/07 04:32:49;;;;;;;6.85;3.85;;;11.00;44.80;;;;;;5012415;28;20268;-43
2022/10/07 04:35:19;;;;;;;12.27;4.10;;;11.00;44.90;;;;;;5012047;28;20240;-43
2022/10/07 04:37:47;;;;;;;10.98;4.82;;;11.00;45.00;;;;;;5011663;28;20260;-43
2022/10/07 04:40:13;;;;;;;10.93;3.70;;;10.90;45.10;;;;;;5012090;28;20547;-44
2022/10/07 04:45:23;;;;;;;5.88;4.53;;;10.90;45.00;;;;;;5012126;28;20885;-43
2022/10/07 04:47:49;;;;;;;5.87;4.30;;;10.90;45.00;;;;;;5011313;28;20233;-42
2022/10/07 04:50:15;;;;;;;6.50;4.37;;;10.80;45.00;;;;;;5011988;28;20253;-44
2022/10/07 04:52:42;;;;;;;8.90;4.10;;;10.80;45.00;;;;;;5011978;28;20405;-43
2022/10/07 04:55:10;;;;;;;8.63;3.65;;;10.80;45.00;;;;;;5011800;28;20234;-43
2022/10/07 04:57:36;;;;;;;11.13;4.07;;;10.80;45.20;;;;;;5011282;28;20183;-43
2022/10/07 05:00:03;;;;;;;7.00;4.50;;;10.80;45.10;;;;;;5011951;28;20179;-43
2022/10/07 05:02:29;;;;;;;5.85;4.00;;;10.80;45.20;;;;;;5011763;28;20654;-43
2022/10/07 05:04:55;;;;;;;8.30;4.70;;;10.80;45.10;;;;;;5011690;28;20198;-43
2022/10/07 05:07:20;;;;;;;15.17;5.53;;;10.80;45.30;;;;;;5011074;28;20448;-43
2022/10/07 05:09:46;;;;;;;7.00;4.50;;;10.70;45.30;;;;;;5011738;28;20265;-44
2022/10/07 05:12:12;;;;;;;6.47;4.73;;;10.80;45.20;;;;;;5011731;28;20254;-43
2022/10/07 05:14:39;;;;;;;7.20;4.03;;;10.80;45.20;;;;;;5011715;28;20206;-43
2022/10/07 05:17:05;;;;;;;9.70;5.82;;;10.70;45.10;;;;;;5011051;28;20265;-44
2022/10/07 05:19:31;;;;;;;9.10;4.73;;;10.70;45.30;;;;;;5014303;28;20268;-43
2022/10/07 05:21:56;;;;;;;9.83;5.13;;;10.80;45.20;;;;;;5015023;28;20657;-43
2022/10/07 05:24:22;;;;;;;10.50;4.87;;;10.70;45.40;;;;;;5015105;28;20209;-43
2022/10/07 05:26:49;;;;;;;8.20;4.30;;;10.70;45.20;;;;;;5014446;28;20199;-44
2022/10/07 05:29:15;;;;;;;8.50;5.15;;;10.80;45.30;;;;;;5014901;28;20174;-43
2022/10/07 05:31:41;;;;;;;11.07;5.53;;;10.70;45.20;;;;;;5015002;28;20185;-43
2022/10/07 05:34:07;;;;;;;8.43;4.50;;;10.70;45.50;;;;;;5015088;28;20178;-43
2022/10/07 05:36:33;;;;;;;10.37;5.20;;;10.70;45.60;;;;;;5014194;28;20791;-44
2022/10/07 05:38:59;;;;;;;7.55;4.75;;;10.70;45.60;;;;;;5014771;28;20447;-43
2022/10/07 05:41:28;;;;;;;7.43;5.33;;;10.80;45.50;;;;;;5014709;28;20178;-44
2022/10/07 05:43:54;;;;;;;8.77;5.55;;;10.80;45.50;;;;;;5014622;28;20201;-43
2022/10/07 05:46:20;;;;;;;9.97;6.00;;;10.80;45.60;;;;;;5014033;28;20222;-43
2022/10/07 05:48:47;;;;;;;12.48;5.30;;;10.90;45.60;;;;;;5014569;28;20206;-44
2022/10/07 05:51:14;;;;;;;9.00;4.90;;;10.90;45.70;;;;;;5014648;28;20171;-43
2022/10/07 05:53:40;;;;;;;7.78;4.65;;;11.00;46.00;;;;;;5014646;28;20182;-43
2022/10/07 05:56:07;;;;;;;13.90;5.70;;;11.00;45.90;;;;;;5013765;28;20288;-44
2022/10/07 05:58:37;;;;;;;8.60;5.80;;;11.10;46.10;;;;;;5014380;28;20229;-43
2022/10/07 06:01:05;;;;;;;28.73;6.28;;;11.10;46.20;;;;;;5014390;28;20189;-43
2022/10/07 06:03:32;;;;;;;8.00;5.07;;;11.10;46.10;;;;;;5014566;28;20179;-43
2022/10/07 06:05:59;;;;;;;17.17;6.20;;;11.20;46.30;;;;;;5013713;28;20198;-43
2022/10/07 06:08:26;;;;;;;10.05;5.55;;;11.20;46.30;;;;;;5014395;28;20547;-43
2022/10/07 06:13:37;;;;;;;13.05;6.47;;;11.30;46.20;;;;;;5014544;28;20162;-42
2022/10/07 06:16:05;;;;;;;12.02;5.70;;;11.40;46.10;;;;;;5013379;28;20203;-42
2022/10/07 06:18:32;;;;;;;8.25;5.38;;;11.50;46.30;;;;;;5014009;28;20220;-43
2022/10/07 06:20:59;;;;;;;7.22;4.88;;;11.60;46.50;;;;;;5013858;28;20178;-42
2022/10/07 06:23:26;;;;;;;7.63;5.40;;;11.60;46.70;;;;;;5013915;28;20249;-42
2022/10/07 06:26:01;;;;;;;8.93;5.70;;;11.60;46.70;;;;;;5013501;28;20205;-42
2022/10/07 06:28:32;;;;;;;6.88;4.85;;;11.70;47.00;;;;;;5013831;28;20194;-43
2022/10/07 06:30:58;;;;;;;9.90;5.38;;;11.80;47.10;;;;;;5013117;28;20198;-42
2022/10/07 06:33:23;;;;;;;8.27;5.77;;;11.80;47.00;;;;;;5014043;28;20590;-42
2022/10/07 06:35:49;;;;;;;10.07;6.43;;;12.00;47.20;;;;;;5013046;28;20705;-42
2022/10/07 06:38:15;;;;;;;11.70;5.03;;;12.00;47.20;;;;;;5013758;28;20236;-42
2022/10/07 06:40:42;;;;;;;8.15;5.18;;;12.10;47.30;;;;;;5013439;28;20178;-43
2022/10/07 06:43:07;;;;;;;7.78;5.45;;;12.30;47.50;;;;;;5013446;28;20592;-43
2022/10/07 06:45:33;;;;;;;10.00;5.27;;;12.40;47.40;;;;;;5012805;28;20269;-43
2022/10/07 06:47:59;;;;;;;6.83;4.93;;;12.50;47.40;;;;;;5013640;28;20476;-43
2022/10/07 06:50:25;;;;;;;7.72;6.93;;;12.60;47.30;;;;;;5013445;28;20695;-42
2022/10/07 06:52:51;;;;;;;9.20;6.45;;;12.70;47.40;;;;;;5013316;28;20186;-42
2022/10/07 06:55:17;;;;;;;8.00;6.20;;;12.90;47.50;;;;;;5013198;28;20190;-42
2022/10/07 06:57:44;;;;;;;12.20;5.43;;;13.00;47.40;;;;;;5013041;28;20204;-43
2022/10/07 07:00:10;;;;;;;9.35;5.75;;;13.10;47.40;;;;;;5013128;28;20213;-43
2022/10/07 07:02:36;;;;;;;8.80;6.10;;;13.20;47.30;;;;;;5013405;28;20183;-43
2022/10/07 07:05:04;;;;;;;10.60;5.73;;;13.40;47.40;;;;;;5013130;28;20194;-43
2022/10/07 07:07:30;;;;;;;6.18;5.57;;;13.50;48.00;;;;;;5012454;28;20198;-43
2022/10/07 07:09:56;;;;;;;9.77;6.65;;;13.60;47.40;;;;;;5013080;28;20253;-43
2022/10/07 07:12:24;;;;;;;7.67;5.27;;;13.70;47.40;;;;;;5013314;28;20261;-43
2022/10/07 07:14:50;;;;;;;13.45;6.28;;;13.90;47.50;;;;;;5013198;28;20230;-43
2022/10/07 07:17:17;;;;;;;8.20;6.55;;;14.00;47.40;;;;;;5012382;28;20270;-42
2022/10/07 07:19:43;;;;;;;10.75;7.53;;;14.20;47.60;;;;;;5013114;28;20202;-43
2022/10/07 07:22:09;;;;;;;8.65;6.55;;;14.40;47.70;;;;;;5012806;28;20179;-43
2022/10/07 07:24:35;;;;;;;9.80;7.03;;;14.50;47.50;;;;;;5012909;28;20183;-43
2022/10/07 07:27:01;;;;;;;8.60;6.90;;;14.60;47.40;;;;;;5012383;28;20290;-43
2022/10/07 07:29:27;;;;;;;8.87;6.57;;;14.80;47.40;;;;;;5012897;28;20171;-43
2022/10/07 07:31:52;;;;;;;10.80;7.07;;;14.80;47.50;;;;;;5012899;28;20436;-43
2022/10/07 07:34:18;;;;;;;14.13;8.43;;;14.90;47.30;;;;;;5012656;28;20174;-44
2022/10/07 07:36:47;;;;;;;16.13;7.77;;;15.00;47.20;;;;;;5012019;28;20198;-43
2022/10/07 07:39:16;;;;;;;8.27;6.68;;;15.00;46.90;;;;;;5012489;28;20171;-43
2022/10/07 07:41:49;;;;;;;10.52;8.48;;;15.10;47.20;;;;;;5012399;28;20821;-44
2022/10/07 07:44:17;;;;;;;11.63;7.60;;;15.30;47.40;;;;;;5012773;28;20171;-43
2022/10/07 07:46:47;;;;;;;10.18;7.10;;;15.30;47.30;;;;;;5011367;28;20206;-43
2022/10/07 07:49:13;;;;;;;8.98;7.63;;;15.50;47.20;;;;;;5012426;28;20171;-43
2022/10/07 07:51:41;;;;;;;10.63;8.45;;;15.50;47.10;;;;;;5012432;28;20178;-44
2022/10/07 07:54:08;;;;;;;11.07;7.40;;;15.60;47.10;;;;;;5012312;28;20175;-43
2022/10/07 07:56:34;;;;;;;8.90;8.02;;;15.80;47.00;;;;;;5011711;28;20740;-43
2022/10/07 07:59:02;;;;;;;11.68;6.95;;;15.90;47.10;;;;;;5012603;28;20174;-43
2022/10/07 08:01:31;;;;;;;11.63;7.72;;;16.10;47.10;;;;;;5012537;28;20186;-45
2022/10/07 08:03:58;;;;;;;7.93;7.13;;;16.20;46.70;;;;;;5012531;28;20170;-43
2022/10/07 08:06:26;;;;;;;11.05;7.40;;;16.30;46.90;;;;;;5011774;28;20191;-42
2022/10/07 08:08:56;;;;;;;8.40;6.93;;;16.50;47.10;;;;;;5012252;28;20221;-42
2022/10/07 08:11:22;;;;;;;6.53;5.93;;;16.60;46.90;;;;;;5012574;28;20217;-42
2022/10/07 08:13:48;;;;;;;16.50;7.68;;;16.80;46.80;;;;;;5012361;28;20163;-43
2022/10/07 08:16:16;;;;;;;11.50;6.83;;;17.00;46.80;;;;;;5011738;28;20205;-42
2022/10/07 08:18:47;;;;;;;9.48;6.90;;;17.10;46.80;;;;;;5012379;28;20468;-42
2022/10/07 08:21:17;;;;;;;13.55;5.50;;;17.30;46.80;;;;;;5012215;28;20532;-44
2022/10/07 08:23:43;;;;;;;6.32;5.30;;;17.40;46.20;;;;;;5012162;28;20213;-44
2022/10/07 08:26:09;;;;;;;8.48;5.63;;;17.60;46.50;;;;;;5011775;28;20213;-43
2022/10/07 08:28:36;;;;;;;6.07;5.30;;;17.70;46.60;;;;;;5011959;28;20210;-43
2022/10/07 08:31:11;;;;;;;5.95;4.45;;;17.70;46.30;;;;;;5012151;28;20631;-44
2022/10/07 08:33:39;;;;;;;5.82;4.22;;;17.80;45.80;;;;;;5012422;28;20246;-44
2022/10/07 08:36:07;;;;;;;7.35;4.13;;;18.00;46.20;;;;;;5011330;28;20293;-44
2022/10/07 08:38:35;;;;;;;6.40;4.97;;;18.00;45.60;;;;;;5012056;28;20178;-43
2022/10/07 08:41:31;;;;;;;5.43;4.25;;;18.20;45.70;;;;;;5011994;28;20181;-44
2022/10/07 08:43:59;;;;;;;5.68;4.45;;;18.30;45.10;;;;;;5011982;28;20250;-43
2022/10/07 08:46:30;;;;;;;9.57;4.18;;;18.40;45.60;;;;;;5011627;28;20217;-44
2022/10/07 08:49:03;;;;;;;6.60;4.43;;;18.60;45.20;;;;;;5012153;28;20187;-44
2022/10/07 08:51:38;;;;;;;9.07;4.28;;;18.50;43.40;;;;;;5011984;28;20218;-43
2022/10/07 08:54:04;;;;;;;4.97;3.95;;;18.60;44.20;;;;;;5014337;28;20216;-44
2022/10/07 08:56:32;;;;;;;6.25;4.40;;;18.70;43.10;;;;;;5015045;28;20195;-43
2022/10/07 08:59:03;;;;;;;5.72;4.80;;;18.80;43.60;;;;;;5015825;28;20185;-44
2022/10/07 09:01:44;;;;;;;4.50;4.03;;;18.90;43.60;;;;;;5015434;28;20677;-44
2022/10/07 09:04:22;;;;;;;4.78;3.70;;;19.10;43.10;;;;;;5015535;28;20182;-43
2022/10/07 09:06:57;;;;;;;8.65;4.07;;;19.20;43.10;;;;;;5014918;28;20233;-44
2022/10/07 09:09:52;;;;;;;4.43;3.38;;;19.40;43.20;;;;;;5032896;23;20302;-42
2022/10/07 09:12:37;;;;;;;6.25;4.82;;;19.50;41.80;;;;;;5034944;28;20166;-41
2022/10/07 09:15:05;;;;;;;6.15;3.60;;;19.60;40.70;;;;;;5035015;28;20677;-41
2022/10/07 09:17:42;;;;;;;4.22;3.83;;;19.60;41.40;;;;;;5034665;28;20178;-41
2022/10/07 09:20:25;;;;;;;8.07;4.72;;;19.70;41.60;;;;;;5034802;28;20852;-41
2022/10/07 09:22:56;;;;;;;5.43;4.03;;;19.80;41.10;;;;;;5034861;28;20258;-42
2022/10/07 09:25:25;;;;;;;6.97;4.15;;;19.90;40.00;;;;;;5034643;28;20525;-41
2022/10/07 09:27:53;;;;;;;6.30;3.92;;;20.10;41.30;;;;;;5034445;28;20206;-42
2022/10/07 09:30:20;;;;;;;6.03;3.85;;;20.30;40.90;;;;;;5034574;28;20190;-41
2022/10/07 09:32:48;;;;;;;3.80;3.42;;;20.30;39.80;;;;;;5034690;28;20680;-41
2022/10/07 09:35:17;;;;;;;7.03;3.85;;;20.30;39.30;;;;;;5034608;28;20255;-42
2022/10/07 09:38:01;;;;;;;5.15;3.10;;;20.40;39.50;;;;;;5034050;28;20181;-41
2022/10/07 09:40:34;;;;;;;4.63;3.30;;;20.50;36.80;;;;;;5034904;28;20293;-41
2022/10/07 09:43:01;;;;;;;11.68;4.25;;;20.50;38.20;;;;;;5034522;28;20273;-41
2022/10/07 09:45:31;;;;;;;5.43;4.15;;;20.60;38.70;;;;;;5034402;28;20162;-42
2022/10/07 09:48:06;;;;;;;6.78;4.50;;;20.80;39.40;;;;;;5034202;28;20208;-42
2022/10/07 09:50:38;;;;;;;6.80;3.72;;;21.00;39.50;;;;;;5034598;28;20208;-41
2022/10/07 09:53:25;;;;;;;5.35;3.25;;;21.20;39.20;;;;;;5034367;28;20158;-42
2022/10/07 09:55:53;;;;;;;5.53;4.30;;;21.40;39.10;;;;;;5033806;28;20641;-41
2022/10/07 09:58:28;;;;;;;3.58;3.28;;;21.50;38.30;;;;;;5034372;28;20257;-42
2022/10/07 10:00:56;;;;;;;14.23;5.30;;;21.50;37.40;;;;;;5034421;28;20208;-40
2022/10/07 10:03:36;;;;;;;3.08;2.33;;;21.60;38.40;;;;;;5034227;28;20169;-41
2022/10/07 10:06:09;;;;;;;6.05;3.47;;;21.90;38.60;;;;;;5032358;28;20166;-42
2022/10/07 10:08:37;;;;;;;3.10;2.72;;;22.00;37.90;;;;;;5034011;28;20194;-42
2022/10/07 10:11:06;;;;;;;5.28;3.15;;;22.00;37.00;;;;;;5033988;28;20692;-43
2022/10/07 10:13:37;;;;;;;4.00;3.20;;;22.10;37.90;;;;;;5033898;28;20315;-42
2022/10/07 10:16:05;;;;;;;4.40;3.40;;;22.30;36.80;;;;;;5033592;28;20253;-41
2022/10/07 10:18:52;;;;;;;5.00;2.97;;;22.30;34.20;;;;;;5033983;28;20166;-42
2022/10/07 10:21:29;;;;;;;5.25;3.45;;;22.30;36.30;;;;;;5033938;28;20209;-42
2022/10/07 10:24:02;;;;;;;4.38;3.95;;;22.50;37.10;;;;;;5037285;28;20728;-42
2022/10/07 10:27:05;;;;;;;5.95;3.20;;;22.60;36.70;;;;;;5037591;28;20178;-42
2022/10/07 10:29:39;;;;;;;4.50;3.45;;;22.70;36.80;;;;;;5033666;28;20221;-42
2022/10/07 10:32:23;;;;;;;5.10;2.97;;;22.80;36.30;;;;;;5033673;28;20178;-42
2022/10/07 10:34:58;;;;;;;6.63;3.17;;;22.90;36.30;;;;;;5033873;28;20683;-42
2022/10/07 10:38:00;;;;;;;6.90;3.67;;;22.90;34.50;;;;;;5032896;28;20719;-43
2022/10/07 10:40:36;;;;;;;5.40;3.88;;;22.80;34.70;;;;;;5033786;28;20444;-42
2022/10/07 10:43:15;;;;;;;4.50;2.93;;;22.80;36.40;;;;;;5033373;28;20176;-42
2022/10/07 10:46:09;;;;;;;6.30;3.20;;;23.00;36.70;;;;;;5032936;28;20887;-45
2022/10/07 10:48:53;;;;;;;13.63;4.07;;;23.10;35.60;;;;;;5033143;28;20441;-43
2022/10/07 10:51:41;;;;;;;4.80;3.30;;;23.20;35.50;;;;;;5033513;28;20412;-43
2022/10/07 10:54:26;;;;;;;5.43;3.47;;;23.30;35.70;;;;;;5033394;28;20804;-42
2022/10/07 10:57:28;;;;;;;7.80;2.77;;;23.40;35.50;;;;;;5032701;28;20400;-42
2022/10/07 11:00:17;;;;;;;3.73;2.67;;;23.50;35.40;;;;;;5032983;28;20424;-42
2022/10/07 11:02:47;;;;;;;6.03;2.97;;;23.60;35.60;;;;;;5031809;28;20405;-42
2022/10/07 11:05:43;;;;;;;4.70;3.07;;;23.60;35.30;;;;;;5032907;28;20401;-43
2022/10/07 11:08:16;;;;;;;4.13;3.13;;;23.70;34.30;;;;;;5028870;28;20468;-43
2022/10/07 11:11:05;;;;;;;4.47;2.90;;;23.90;34.70;;;;;;5032618;28;20480;-43
2022/10/07 11:13:39;;;;;;;6.80;3.03;;;24.00;34.90;;;;;;5032824;28;20916;-43
2022/10/07 11:16:08;;;;;;;6.43;3.73;;;24.10;34.70;;;;;;5031776;28;20481;-43
2022/10/07 11:18:46;;;;;;;4.13;2.73;;;24.20;33.40;;;;;;5032735;28;20409;-41
2022/10/07 11:21:18;;;;;;;2.93;2.20;;;24.30;34.80;;;;;;5032672;28;20403;-43
2022/10/07 11:24:09;;;;;;;4.37;2.80;;;24.40;34.30;;;;;;5032733;28;20494;-44
2022/10/07 11:26:42;;;;;;;5.57;3.43;;;24.40;34.20;;;;;;5032304;28;20433;-43
2022/10/07 11:29:45;;;;;;;3.87;2.93;;;24.40;34.40;;;;;;5032374;28;20975;-43
2022/10/07 11:32:21;;;;;;;4.67;2.80;;;24.50;34.10;;;;;;5032454;28;20412;-43
2022/10/07 11:35:19;;;;;;;4.50;2.90;;;24.50;34.00;;;;;;5032320;28;20455;-43
2022/10/07 11:37:53;;;;;;;3.93;2.37;;;24.50;34.50;;;;;;5031930;28;20443;-44
2022/10/07 11:40:21;;;;;;;3.90;2.90;;;24.50;30.60;;;;;;5032220;28;20955;-43
2022/10/07 11:42:50;;;;;;;4.60;3.23;;;24.40;33.30;;;;;;5032358;28;20412;-42
2022/10/07 11:45:21;;;;;;;3.40;2.27;;;24.40;32.70;;;;;;5032294;28;20411;-43
2022/10/07 11:47:50;;;;;;;3.93;2.70;;;24.50;33.40;;;;;;5031929;28;20452;-43
2022/10/07 11:50:25;;;;;;;3.53;2.60;;;24.50;33.90;;;;;;5032196;28;20982;-43
2022/10/07 11:52:55;;;;;;;5.10;2.70;;;24.60;34.00;;;;;;5032248;28;20602;-43
2022/10/07 11:55:38;;;;;;;4.83;3.10;;;24.80;32.60;;;;;;5032170;28;20403;-44
2022/10/07 11:58:05;;;;;;;4.87;3.10;;;24.80;31.90;;;;;;5032362;28;20396;-43
2022/10/07 12:00:36;;;;;;;3.50;2.67;;;24.90;33.00;;;;;;5032216;28;20432;-43
2022/10/07 12:03:44;;;;;;;3.23;2.93;;;25.00;33.20;;;;;;5032009;28;20408;-43
2022/10/07 12:06:10;;;;;;;2.60;2.40;;;25.20;33.70;;;;;;5031151;28;20445;-43
2022/10/07 12:08:41;;;;;;;6.50;3.13;;;25.30;33.10;;;;;;5032207;28;20460;-44
2022/10/07 12:11:10;;;;;;;3.50;2.73;;;25.40;33.20;;;;;;5031885;28;20487;-44
2022/10/07 12:13:44;;;;;;;7.30;4.00;;;25.50;33.20;;;;;;5032208;28;20444;-44
2022/10/07 12:16:22;;;;;;;3.70;2.83;;;25.50;32.70;;;;;;5031581;28;20442;-43
2022/10/07 12:19:09;;;;;;;3.83;3.37;;;25.60;33.10;;;;;;5031798;28;20418;-43
2022/10/07 12:22:03;;;;;;;7.00;3.13;;;25.70;33.10;;;;;;5031854;28;20451;-44
2022/10/07 12:24:31;;;;;;;4.93;3.10;;;25.80;33.60;;;;;;5031837;28;20412;-44
2022/10/07 12:27:10;;;;;;;4.90;3.23;;;25.90;32.10;;;;;;5031052;28;20409;-43
2022/10/07 12:30:02;;;;;;;3.63;2.93;;;25.90;32.30;;;;;;5035245;28;20432;-43
2022/10/07 12:32:51;;;;;;;7.43;4.20;;;26.00;32.00;;;;;;5032125;28;20452;-43
2022/10/07 12:35:28;;;;;;;3.87;2.97;;;26.10;32.70;;;;;;5035673;28;20389;-43
2022/10/07 12:38:09;;;;;;;6.67;3.00;;;26.10;32.80;;;;;;5035565;28;20412;-43
2022/10/07 12:40:37;;;;;;;5.20;3.07;;;26.10;30.90;;;;;;5035619;28;20424;-44
2022/10/07 12:43:14;;;;;;;5.40;3.33;;;26.10;32.30;;;;;;5035562;28;20412;-44
2022/10/07 12:45:42;;;;;;;7.97;2.97;;;26.10;30.10;;;;;;5034912;28;20458;-43
2022/10/07 12:48:15;;;;;;;5.27;3.20;;;26.00;30.70;;;;;;5035532;28;20460;-44
2022/10/07 12:50:43;;;;;;;4.00;3.30;;;26.00;31.60;;;;;;5035355;28;20511;-44
2022/10/07 12:53:10;;;;;;;4.40;3.20;;;26.00;30.10;;;;;;5035728;28;20400;-44
2022/10/07 12:55:40;;;;;;;3.40;2.80;;;25.90;30.10;;;;;;5035099;28;20497;-43
2022/10/07 13:01:49;;;;;;;5.83;3.13;;;26.10;32.50;;;;;;5035293;28;20388;-43
2022/10/07 13:04:40;;;;;;;5.10;2.93;;;26.30;32.90;;;;;;5035157;28;20400;-43
2022/10/07 13:07:31;;;;;;;5.17;3.10;;;26.30;32.00;;;;;;5034621;28;20468;-44
2022/10/07 13:10:05;;;;;;;4.23;2.97;;;26.30;29.90;;;;;;5035115;28;20443;-43
2022/10/07 13:12:36;;;;;;;3.33;2.83;;;26.30;30.90;;;;;;5035234;28;20404;-45
2022/10/07 13:15:12;;;;;;;3.20;2.73;;;26.20;31.00;;;;;;5035329;28;20434;-43
2022/10/07 13:18:05;;;;;;;4.83;2.63;;;26.30;32.30;;;;;;5034542;28;20396;-44
2022/10/07 13:20:56;;;;;;;3.60;2.53;;;26.20;30.90;;;;;;5034896;28;20422;-44
2022/10/07 13:23:22;;;;;;;6.20;2.83;;;26.10;32.00;;;;;;5034840;28;20393;-44